createdAt,value
2023-05-07T00:00:50.812Z,6.15
2023-05-07T00:06:00.270Z,7.07
2023-05-07T00:11:06.463Z,6.60
2023-05-07T00:16:10.854Z,6.40
2023-05-07T00:21:14.979Z,6.03
2023-05-07T00:26:26.456Z,6.10
2023-05-07T00:31:30.827Z,5.10
2023-05-07T00:36:35.119Z,5.53
2023-05-07T00:41:40.752Z,5.47
2023-05-07T00:46:45.935Z,5.38
2023-05-07T00:51:56.535Z,5.30
2023-05-07T00:57:02.519Z,5.22
2023-05-07T01:02:06.732Z,5.10
2023-05-07T01:07:11.038Z,5.18
2023-05-07T01:12:17.075Z,4.65
2023-05-07T01:17:21.807Z,5.67
2023-05-07T01:22:33.255Z,5.20
2023-05-07T01:27:38.211Z,5.43
2023-05-07T01:32:47.628Z,5.30
2023-05-07T01:37:53.418Z,5.57
2023-05-07T01:42:57.797Z,5.80
2023-05-07T01:48:02.370Z,6.03
2023-05-07T01:53:08.003Z,5.45
2023-05-07T01:58:12.192Z,5.35
2023-05-07T02:03:16.925Z,5.10
2023-05-07T02:08:35.372Z,5.13
2023-05-07T02:13:40.062Z,5.28
2023-05-07T02:18:44.203Z,5.25
2023-05-07T02:23:49.690Z,5.57
2023-05-07T02:28:54.806Z,5.22
2023-05-07T02:33:59.312Z,5.20
2023-05-07T02:39:05.395Z,5.20
2023-05-07T02:44:10.196Z,5.80
2023-05-07T02:49:14.891Z,5.80
2023-05-07T02:54:20.466Z,5.45
2023-05-07T02:59:24.806Z,4.95
2023-05-07T03:04:29.010Z,5.68
2023-05-07T03:09:34.662Z,5.78
2023-05-07T03:14:39.065Z,5.93
2023-05-07T03:19:45.679Z,6.35
2023-05-07T03:24:51.073Z,6.95
2023-05-07T03:29:55.206Z,6.55
2023-05-07T03:34:59.472Z,7.00
2023-05-07T03:40:06.483Z,6.88
2023-05-07T03:45:19.406Z,6.70
2023-05-07T03:50:29.655Z,6.88
2023-05-07T03:55:35.276Z,7.57
2023-05-07T04:00:41.025Z,7.07
2023-05-07T04:05:56.255Z,7.90
2023-05-07T04:11:02.522Z,8.60
2023-05-07T04:16:10.355Z,8.63
2023-05-07T04:21:20.080Z,8.95
2023-05-07T04:26:26.657Z,9.43
2023-05-07T04:31:31.668Z,8.65
2023-05-07T04:36:36.588Z,8.82
2023-05-07T04:41:48.525Z,9.25
2023-05-07T04:46:52.586Z,10.23
2023-05-07T04:51:56.923Z,9.65
2023-05-07T04:57:02.946Z,8.98
2023-05-07T05:02:07.160Z,9.57
2023-05-07T05:07:11.842Z,10.05
2023-05-07T05:12:17.265Z,9.50
2023-05-07T05:17:22.302Z,11.10
2023-05-07T05:22:26.718Z,11.40
2023-05-07T05:27:32.775Z,11.02
2023-05-07T05:32:37.873Z,11.07
2023-05-07T05:37:43.214Z,11.15
2023-05-07T05:42:48.859Z,11.98
2023-05-07T05:47:54.672Z,10.00
2023-05-07T05:53:00.475Z,11.98
2023-05-07T05:58:07.789Z,11.77
2023-05-07T06:03:15.956Z,12.50
2023-05-07T06:08:21.090Z,12.70
2023-05-07T06:13:26.775Z,13.93
2023-05-07T06:18:31.388Z,13.07
2023-05-07T06:23:36.301Z,13.20
2023-05-07T06:28:44.690Z,13.13
2023-05-07T06:33:51.850Z,13.45
2023-05-07T06:38:57.070Z,13.90
2023-05-07T06:44:02.798Z,14.18
2023-05-07T06:49:16.957Z,14.63
2023-05-07T06:54:24.626Z,13.18
2023-05-07T06:59:30.851Z,13.57
2023-05-07T07:04:36.390Z,15.07
2023-05-07T07:09:44.369Z,14.88
2023-05-07T07:19:59.449Z,11.30
2023-05-07T07:25:04.168Z,15.85
2023-05-07T07:30:11.163Z,16.60
2023-05-07T07:35:18.836Z,13.48
2023-05-07T07:40:23.658Z,11.85
2023-05-07T07:45:30.081Z,15.75
2023-05-07T07:50:44.637Z,15.02
2023-05-07T07:55:53.145Z,14.70
2023-05-07T08:01:02.550Z,14.38
2023-05-07T08:06:07.043Z,14.18
2023-05-07T08:11:13.287Z,14.10
2023-05-07T08:16:19.512Z,14.50
2023-05-07T08:21:24.806Z,14.95
2023-05-07T08:26:29.109Z,11.98
2023-05-07T08:31:34.641Z,14.32
2023-05-07T08:36:38.869Z,14.57
2023-05-07T08:41:44.918Z,12.73
2023-05-07T08:46:55.150Z,14.33
2023-05-07T08:52:02.253Z,15.70
2023-05-07T08:57:06.985Z,14.27
2023-05-07T09:02:14.418Z,15.47
2023-05-07T09:08:01.479Z,14.20
2023-05-07T09:13:19.364Z,11.88
2023-05-07T09:18:26.535Z,12.05
2023-05-07T09:23:31.644Z,14.00
2023-05-07T09:28:35.865Z,13.95
2023-05-07T09:33:42.821Z,12.13
2023-05-07T09:38:49.098Z,10.73
2023-05-07T09:43:57.321Z,13.10
2023-05-07T09:49:11.245Z,14.02
2023-05-07T09:54:16.583Z,14.23
2023-05-07T09:59:24.928Z,13.15
2023-05-07T10:04:31.484Z,11.68
2023-05-07T10:09:39.432Z,13.27
2023-05-07T10:14:48.602Z,12.85
2023-05-07T10:19:56.298Z,13.65
2023-05-07T10:25:06.082Z,12.35
2023-05-07T10:30:23.402Z,11.48
2023-05-07T10:35:36.951Z,10.63
2023-05-07T10:40:42.688Z,10.60
2023-05-07T10:46:14.245Z,8.45
2023-05-07T10:51:24.322Z,7.38
2023-05-07T10:56:38.867Z,8.90
2023-05-07T11:01:58.934Z,9.25
2023-05-07T11:07:33.541Z,9.18
2023-05-07T11:12:57.164Z,7.80
2023-05-07T11:18:21.581Z,8.20
2023-05-07T11:24:01.031Z,7.97
2023-05-07T11:29:24.271Z,4.93
2023-05-07T11:34:36.856Z,6.28
2023-05-07T11:39:42.277Z,7.15
2023-05-07T11:44:49.185Z,7.88
2023-05-07T11:49:54.640Z,7.03
2023-05-07T11:55:05.573Z,7.72
2023-05-07T12:00:14.529Z,7.15
2023-05-07T12:05:18.667Z,6.93
2023-05-07T12:10:25.895Z,7.07
2023-05-07T12:15:30.414Z,7.13
2023-05-07T12:20:35.975Z,8.00
2023-05-07T12:25:47.744Z,7.40
2023-05-07T12:30:53.876Z,5.97
2023-05-07T12:36:09.202Z,6.10
2023-05-07T12:41:14.600Z,6.35
2023-05-07T12:46:19.681Z,5.55
2023-05-07T12:51:24.556Z,4.85
2023-05-07T12:56:33.079Z,5.28
2023-05-07T13:01:37.564Z,6.40
2023-05-07T13:06:41.681Z,6.88
2023-05-07T13:11:47.309Z,8.20
2023-05-07T13:16:51.378Z,7.68
2023-05-07T13:21:55.610Z,6.95
2023-05-07T13:27:01.084Z,7.97
2023-05-07T13:32:06.020Z,7.13
2023-05-07T13:37:11.638Z,7.65
2023-05-07T13:42:17.835Z,8.67
2023-05-07T13:47:24.060Z,8.82
2023-05-07T13:57:39.442Z,10.32
2023-05-07T14:02:44.787Z,10.23
2023-05-07T14:07:50.226Z,9.25
2023-05-07T14:12:56.045Z,9.05
2023-05-07T14:18:00.462Z,7.17
2023-05-07T14:23:04.566Z,7.50
2023-05-07T14:28:10.168Z,7.18
2023-05-07T14:33:14.177Z,7.20
2023-05-07T14:38:18.296Z,6.88
2023-05-07T14:43:23.948Z,7.65
2023-05-07T14:48:28.681Z,7.15
2023-05-07T14:53:32.676Z,7.85
2023-05-07T14:58:38.223Z,5.18
2023-05-07T15:03:42.401Z,3.70
2023-05-07T15:08:46.783Z,3.67
2023-05-07T15:13:52.524Z,2.97
2023-05-07T15:18:56.687Z,4.00
2023-05-07T15:24:01.668Z,3.80
2023-05-07T15:29:11.066Z,6.15
2023-05-07T15:34:16.104Z,6.38
2023-05-07T15:39:33.841Z,5.82
2023-05-07T15:44:40.534Z,7.05
2023-05-07T15:49:44.830Z,7.20
2023-05-07T15:54:48.857Z,7.97
2023-05-07T15:59:54.285Z,9.80
2023-05-07T16:04:58.355Z,9.30
2023-05-07T16:10:02.606Z,8.10
2023-05-07T16:15:09.736Z,7.32
2023-05-07T16:20:15.490Z,5.72
2023-05-07T16:25:19.653Z,7.15
2023-05-07T16:30:25.171Z,9.18
2023-05-07T16:35:29.391Z,10.23
2023-05-07T16:40:33.536Z,11.70
2023-05-07T16:45:38.989Z,11.63
2023-05-07T16:50:44.566Z,12.32
2023-05-07T16:55:48.882Z,12.60
2023-05-07T17:00:54.515Z,13.30
2023-05-07T17:06:01.611Z,13.07
2023-05-07T17:11:05.677Z,12.38
2023-05-07T17:16:11.202Z,13.13
2023-05-07T17:21:15.279Z,11.60
2023-05-07T17:26:19.413Z,12.27
2023-05-07T17:31:25.036Z,11.73
2023-05-07T17:36:29.469Z,10.47
2023-05-07T17:41:36.173Z,10.52
2023-05-07T17:46:41.630Z,11.00
2023-05-07T17:51:53.979Z,9.43
2023-05-07T17:56:59.506Z,8.43
2023-05-07T18:02:05.051Z,7.05
2023-05-07T18:07:09.764Z,7.95
2023-05-07T18:12:13.924Z,7.50
2023-05-07T18:17:19.465Z,7.60
2023-05-07T18:22:23.597Z,8.05
2023-05-07T18:27:27.677Z,8.30
2023-05-07T18:32:33.199Z,8.30
2023-05-07T18:37:37.263Z,7.63
2023-05-07T18:42:41.364Z,7.25
2023-05-07T18:47:46.935Z,7.75
2023-05-07T18:52:51.096Z,7.43
2023-05-07T18:57:55.135Z,6.90
2023-05-07T19:03:00.589Z,5.80
2023-05-07T19:08:04.691Z,6.53
2023-05-07T19:13:08.807Z,6.47
2023-05-07T19:18:22.308Z,6.22
2023-05-07T19:23:26.474Z,6.18
2023-05-07T19:28:31.066Z,6.07
2023-05-07T19:33:37.067Z,6.93
2023-05-07T19:38:43.109Z,6.20
2023-05-07T19:43:47.508Z,5.00
2023-05-07T19:48:53.131Z,5.63
2023-05-07T19:53:57.195Z,4.93
2023-05-07T19:59:01.349Z,5.72
2023-05-07T20:04:07.413Z,4.53
2023-05-07T20:09:12.976Z,5.27
2023-05-07T20:14:17.228Z,5.22
2023-05-07T20:19:22.923Z,4.88
2023-05-07T20:24:27.152Z,4.75
2023-05-07T20:29:31.297Z,4.70
2023-05-07T20:34:36.819Z,4.47
2023-05-07T20:39:41.059Z,4.43
2023-05-07T20:44:45.250Z,4.80
2023-05-07T20:49:53.544Z,4.85
2023-05-07T20:54:57.607Z,4.40
2023-05-07T21:00:01.763Z,5.28
2023-05-07T21:05:08.431Z,4.88
2023-05-07T21:10:12.766Z,5.20
2023-05-07T21:15:17.238Z,5.20
2023-05-07T21:20:22.768Z,5.90
2023-05-07T21:25:26.844Z,5.55
2023-05-07T21:30:31.092Z,5.30
2023-05-07T21:35:36.765Z,5.05
2023-05-07T21:40:40.827Z,5.10
2023-05-07T21:45:44.998Z,5.05
2023-05-07T21:50:57.388Z,4.90
2023-05-07T21:56:02.369Z,5.10
2023-05-07T22:01:06.498Z,5.20
2023-05-07T22:06:11.965Z,4.70
2023-05-07T22:11:16.002Z,5.20
2023-05-07T22:16:20.295Z,5.63
2023-05-07T22:21:26.001Z,6.15
2023-05-07T22:26:30.098Z,6.30
2023-05-07T22:31:34.362Z,6.97
2023-05-07T22:36:39.933Z,6.03
2023-05-07T22:41:44.053Z,6.10
2023-05-07T22:46:49.821Z,5.90
2023-05-07T22:51:55.282Z,5.75
2023-05-07T22:56:59.972Z,6.18
2023-05-07T23:02:05.079Z,6.45
2023-05-07T23:07:10.805Z,6.60
2023-05-07T23:12:14.916Z,6.30
2023-05-07T23:17:19.218Z,6.32
2023-05-07T23:22:24.669Z,7.90
2023-05-07T23:27:28.789Z,6.50
2023-05-07T23:32:33.083Z,7.30
2023-05-07T23:37:39.198Z,7.55
2023-05-07T23:42:43.277Z,7.63
2023-05-07T23:47:47.511Z,7.43
2023-05-07T23:52:53.004Z,8.20
2023-05-07T23:57:57.080Z,7.68
